Terminal Aerodrome Forecast
Issued by NWS Twin Cities, MN

Home | Current Version | Previous Version | Text Only | Print | Product List | Glossary Off
Versions: 1 2 3 4 5 6 7 8 9 10 11 12 13

599
FTUS43 KMPX 202320
TAFEAU
TAF
KEAU 202320Z 2100/2124 01007KT P6SM BKN120
     FM210200 VRB03KT P6SM SCT200
     FM211200 33009G16KT P6SM SKC=

USA.gov is the U.S. government's official web portal to all federal, state and local government web resources and services.